Time;durP1;ratioP1;P1;durP2;ratioP2;P2;SDS_P1;SDS_P2;PMS_P1;PMS_P2;Temp;Humidity;BMP_temperature;BMP_pressure;BME280_temperature;BME280_humidity;BME280_pressure;Samples;Min_cycle;Max_cycle;Signal;HPM_P1;HPM_P2
2021/01/02 00:01:02;;;;;;;36.88;19.10;;;1.60;99.90;;;;;;494428;240;27596;-73
2021/01/02 00:03:03;;;;;;;35.90;19.08;;;1.60;99.90;;;;;;494523;240;27485;-72
2021/01/02 00:05:04;;;;;;;49.28;22.87;;;1.60;99.90;;;;;;494467;240;27477;-72
2021/01/02 00:07:06;;;;;;;41.15;19.62;;;1.70;99.90;;;;;;494535;240;27497;-74
2021/01/02 00:09:07;;;;;;;38.13;19.37;;;1.70;99.90;;;;;;494519;240;27550;-74
2021/01/02 00:11:08;;;;;;;36.90;18.52;;;1.60;99.90;;;;;;494443;240;28001;-72
2021/01/02 00:13:09;;;;;;;41.30;21.25;;;1.60;99.90;;;;;;494528;240;28054;-74
2021/01/02 00:15:11;;;;;;;43.97;22.08;;;1.60;99.90;;;;;;494468;240;27446;-73
2021/01/02 00:17:12;;;;;;;42.10;19.95;;;1.60;99.90;;;;;;494457;240;27580;-73
2021/01/02 00:19:16;;;;;;;37.85;18.77;;;1.50;99.90;;;;;;494537;240;27437;-72
2021/01/02 00:21:14;;;;;;;52.58;22.80;;;1.40;99.90;;;;;;494351;239;27497;-73
2021/01/02 00:23:16;;;;;;;46.40;21.37;;;1.50;99.90;;;;;;494546;240;27600;-75
2021/01/02 00:25:17;;;;;;;48.28;22.92;;;1.60;99.90;;;;;;494609;240;27888;-73
2021/01/02 00:27:18;;;;;;;48.10;22.05;;;1.70;99.90;;;;;;494681;240;27949;-73
2021/01/02 00:29:19;;;;;;;44.38;21.05;;;1.70;99.90;;;;;;494616;240;27971;-72
2021/01/02 00:31:21;;;;;;;39.65;20.00;;;1.60;99.90;;;;;;494643;240;27580;-72
2021/01/02 00:33:28;;;;;;;37.15;18.77;;;1.70;99.90;;;;;;494698;240;27479;-74
2021/01/02 00:35:23;;;;;;;52.65;22.73;;;1.70;99.90;;;;;;494357;239;27508;-72
2021/01/02 00:37:25;;;;;;;49.95;23.00;;;1.60;99.90;;;;;;494632;240;27493;-73
2021/01/02 00:39:26;;;;;;;47.85;23.12;;;1.60;99.90;;;;;;494457;240;27504;-72
2021/01/02 00:41:27;;;;;;;42.75;21.75;;;1.60;99.90;;;;;;494427;240;28014;-73
2021/01/02 00:43:28;;;;;;;47.47;22.62;;;1.70;99.90;;;;;;494496;240;29119;-74
2021/01/02 00:45:29;;;;;;;44.50;21.67;;;1.70;99.90;;;;;;494395;240;27446;-72
2021/01/02 00:47:31;;;;;;;42.35;21.30;;;1.90;99.90;;;;;;494535;240;27504;-73
2021/01/02 00:49:32;;;;;;;48.20;21.10;;;1.90;99.90;;;;;;494467;240;27489;-74
2021/01/02 00:51:33;;;;;;;40.20;21.40;;;1.80;99.90;;;;;;494435;240;27576;-73
2021/01/02 00:53:35;;;;;;;41.00;20.17;;;1.70;99.90;;;;;;494481;240;27538;-74
2021/01/02 00:55:36;;;;;;;43.87;22.40;;;1.80;99.90;;;;;;494483;240;27504;-73
2021/01/02 00:57:37;;;;;;;45.38;22.50;;;1.90;99.90;;;;;;494472;240;28070;-74
2021/01/02 00:59:38;;;;;;;50.17;22.90;;;2.00;99.90;;;;;;494473;240;27944;-73
2021/01/02 01:01:40;;;;;;;43.35;21.77;;;2.10;99.90;;;;;;494438;240;27517;-73
2021/01/02 01:03:41;;;;;;;43.50;20.85;;;2.10;99.90;;;;;;494474;240;27559;-73
2021/01/02 01:05:42;;;;;;;42.30;20.88;;;2.10;99.90;;;;;;494477;240;27477;-73
2021/01/02 01:07:43;;;;;;;39.40;19.90;;;2.10;99.90;;;;;;494495;240;27586;-73
2021/01/02 01:09:45;;;;;;;42.50;21.40;;;2.10;99.90;;;;;;494467;240;27520;-73
2021/01/02 01:11:46;;;;;;;44.92;22.17;;;1.90;99.90;;;;;;494402;240;27525;-73
2021/01/02 01:13:49;;;;;;;40.63;21.10;;;1.90;99.90;;;;;;494477;240;28126;-73
2021/01/02 01:15:48;;;;;;;38.53;18.83;;;1.90;99.90;;;;;;494427;239;29061;-74
2021/01/02 01:17:50;;;;;;;36.97;18.98;;;1.90;99.90;;;;;;494482;240;27504;-76
2021/01/02 01:19:51;;;;;;;35.70;19.52;;;2.00;99.90;;;;;;494491;240;27485;-73
2021/01/02 01:21:52;;;;;;;37.08;18.77;;;2.00;99.90;;;;;;494413;240;27514;-72
2021/01/02 01:23:53;;;;;;;39.63;20.45;;;2.00;99.90;;;;;;494536;240;27484;-73
2021/01/02 01:25:55;;;;;;;37.05;17.92;;;2.00;99.90;;;;;;494421;238;27492;-74
2021/01/02 01:27:56;;;;;;;31.15;17.87;;;2.00;99.90;;;;;;494954;239;27930;-74
2021/01/02 01:29:57;;;;;;;38.67;18.70;;;2.00;99.90;;;;;;494947;239;27970;-73
2021/01/02 01:31:58;;;;;;;32.17;16.77;;;2.00;99.90;;;;;;494928;240;27882;-72
2021/01/02 01:34:00;;;;;;;38.08;18.85;;;2.00;99.90;;;;;;495016;239;27446;-73
2021/01/02 01:36:01;;;;;;;39.25;18.98;;;2.00;99.90;;;;;;494962;239;27493;-73
2021/01/02 01:38:02;;;;;;;38.17;18.30;;;2.00;99.90;;;;;;494961;239;27845;-74
2021/01/02 01:40:04;;;;;;;43.05;19.45;;;2.00;99.90;;;;;;494918;239;27491;-76
2021/01/02 01:42:05;;;;;;;37.85;18.42;;;2.00;99.90;;;;;;494949;239;27963;-75
2021/01/02 01:44:06;;;;;;;43.80;20.45;;;2.00;99.90;;;;;;494953;239;27949;-73
2021/01/02 01:46:07;;;;;;;40.15;18.77;;;1.90;99.90;;;;;;494944;240;27579;-73
2021/01/02 01:48:08;;;;;;;40.60;19.80;;;1.90;99.90;;;;;;494959;239;27592;-75
2021/01/02 01:50:10;;;;;;;37.83;18.17;;;1.90;99.90;;;;;;494942;239;27487;-73
2021/01/02 01:52:11;;;;;;;50.85;23.38;;;1.90;99.90;;;;;;495019;240;27486;-74
2021/01/02 01:54:12;;;;;;;46.97;22.05;;;1.90;99.90;;;;;;494988;239;27451;-72
2021/01/02 01:56:13;;;;;;;45.80;20.55;;;1.90;99.90;;;;;;495023;239;27494;-72
2021/01/02 01:58:15;;;;;;;39.55;19.87;;;1.90;99.90;;;;;;495062;239;28009;-75
2021/01/02 02:00:16;;;;;;;38.22;20.85;;;1.90;99.90;;;;;;495071;239;27994;-73
2021/01/02 02:02:17;;;;;;;39.85;19.37;;;1.90;99.90;;;;;;495141;239;27501;-73
2021/01/02 02:04:18;;;;;;;42.92;19.25;;;1.90;99.90;;;;;;495165;239;27448;-72
2021/01/02 02:06:20;;;;;;;44.38;18.42;;;1.90;99.90;;;;;;495136;239;27486;-72
2021/01/02 02:08:21;;;;;;;46.55;20.00;;;1.90;99.90;;;;;;495163;240;27508;-74
2021/01/02 02:10:22;;;;;;;41.90;20.25;;;2.00;99.90;;;;;;495130;239;27495;-72
2021/01/02 02:12:24;;;;;;;43.38;20.75;;;2.00;99.90;;;;;;495167;239;28017;-73
2021/01/02 02:14:25;;;;;;;42.47;19.75;;;1.90;99.90;;;;;;495121;239;28827;-72
2021/01/02 02:16:26;;;;;;;42.10;21.05;;;2.00;99.90;;;;;;495087;239;27517;-73
2021/01/02 02:18:27;;;;;;;44.47;20.17;;;2.00;99.90;;;;;;495088;239;27533;-74
2021/01/02 02:20:29;;;;;;;39.95;19.05;;;2.00;99.90;;;;;;495044;239;27531;-72
2021/01/02 02:22:30;;;;;;;47.17;20.20;;;2.00;99.90;;;;;;495029;239;27579;-75
2021/01/02 02:24:31;;;;;;;39.88;18.37;;;2.00;99.90;;;;;;494984;239;27483;-75
2021/01/02 02:26:32;;;;;;;48.90;20.55;;;2.00;99.90;;;;;;494940;239;27501;-73
2021/01/02 02:28:34;;;;;;;44.58;20.37;;;1.90;99.90;;;;;;494978;239;27986;-73
2021/01/02 02:30:35;;;;;;;48.22;21.83;;;1.90;99.90;;;;;;494965;239;27908;-73
2021/01/02 02:32:38;;;;;;;44.15;20.05;;;2.00;99.90;;;;;;495012;239;27572;-73
2021/01/02 02:34:37;;;;;;;42.95;20.80;;;2.00;99.90;;;;;;494913;239;27581;-74
2021/01/02 02:36:39;;;;;;;46.65;20.45;;;2.00;99.90;;;;;;494995;239;27493;-73
2021/01/02 02:38:40;;;;;;;39.30;18.75;;;2.00;99.90;;;;;;494923;240;27611;-72
2021/01/02 02:40:41;;;;;;;41.88;21.48;;;2.00;99.90;;;;;;494918;239;27511;-73
2021/01/02 02:42:42;;;;;;;47.28;21.45;;;1.90;99.90;;;;;;494990;239;27474;-73
2021/01/02 02:44:44;;;;;;;45.97;21.27;;;1.90;99.90;;;;;;494983;239;27948;-74
2021/01/02 02:46:45;;;;;;;42.58;20.65;;;1.90;99.90;;;;;;494983;239;28062;-72
2021/01/02 02:48:46;;;;;;;44.53;21.42;;;1.90;99.90;;;;;;494965;239;27564;-73
2021/01/02 02:50:47;;;;;;;41.15;19.20;;;1.90;99.90;;;;;;494974;240;27512;-73
2021/01/02 02:52:49;;;;;;;43.25;21.30;;;1.90;99.90;;;;;;495306;239;27544;-72
2021/01/02 02:54:50;;;;;;;44.83;21.45;;;1.90;99.90;;;;;;495038;239;27491;-73
2021/01/02 02:56:51;;;;;;;43.45;21.45;;;1.90;99.90;;;;;;494983;240;27478;-73
2021/01/02 02:58:52;;;;;;;45.03;21.20;;;1.90;99.90;;;;;;494960;239;28102;-72
2021/01/02 03:00:54;;;;;;;44.58;20.60;;;1.90;99.90;;;;;;494938;239;28055;-74
2021/01/02 03:02:55;;;;;;;46.92;24.90;;;1.90;99.90;;;;;;495000;239;27942;-73
2021/01/02 03:04:56;;;;;;;59.35;30.67;;;1.90;99.90;;;;;;494985;240;27484;-73
2021/01/02 03:06:57;;;;;;;74.95;42.00;;;1.90;99.90;;;;;;494970;240;27509;-72
2021/01/02 03:08:59;;;;;;;46.15;22.45;;;1.90;99.90;;;;;;494990;239;27464;-73
2021/01/02 03:11:00;;;;;;;49.67;24.50;;;1.70;99.90;;;;;;494989;239;27492;-72
2021/01/02 03:13:01;;;;;;;48.38;23.85;;;1.80;99.90;;;;;;495004;239;27535;-73
2021/01/02 03:15:02;;;;;;;48.92;24.05;;;1.70;99.90;;;;;;494989;239;27975;-72
2021/01/02 03:17:04;;;;;;;40.22;19.75;;;1.70;99.90;;;;;;495071;239;29005;-73
2021/01/02 03:19:05;;;;;;;42.50;20.48;;;1.80;99.90;;;;;;495066;239;27449;-72
2021/01/02 03:21:06;;;;;;;45.47;21.55;;;1.80;99.90;;;;;;495131;239;27513;-73
2021/01/02 03:23:08;;;;;;;42.45;20.55;;;1.80;99.90;;;;;;495151;240;27458;-72
2021/01/02 03:25:09;;;;;;;41.35;21.27;;;1.80;99.90;;;;;;495150;239;27591;-73
2021/01/02 03:27:10;;;;;;;34.85;19.15;;;1.80;99.90;;;;;;495197;240;27500;-75
2021/01/02 03:29:11;;;;;;;36.63;19.23;;;1.80;99.90;;;;;;495122;239;27456;-73
2021/01/02 03:31:13;;;;;;;40.92;20.20;;;1.80;99.90;;;;;;495049;239;27980;-75
2021/01/02 03:33:14;;;;;;;36.83;19.00;;;1.80;99.90;;;;;;495015;239;27889;-73
2021/01/02 03:35:15;;;;;;;38.83;19.12;;;1.80;99.90;;;;;;494992;239;27599;-73
2021/01/02 03:37:16;;;;;;;37.40;19.17;;;1.90;99.90;;;;;;494983;239;27496;-73
2021/01/02 03:39:18;;;;;;;40.40;19.83;;;1.80;99.90;;;;;;494977;239;27500;-73
2021/01/02 03:41:19;;;;;;;35.58;18.48;;;1.80;99.90;;;;;;495016;240;27974;-73
2021/01/02 03:43:20;;;;;;;43.65;19.52;;;1.90;99.90;;;;;;495005;239;27641;-74
2021/01/02 03:45:21;;;;;;;41.03;19.62;;;1.90;99.90;;;;;;494979;239;28107;-72
2021/01/02 03:47:23;;;;;;;42.50;20.65;;;1.90;99.90;;;;;;494985;239;27977;-73
2021/01/02 03:49:24;;;;;;;43.40;20.12;;;1.90;99.90;;;;;;495008;239;27941;-72
2021/01/02 03:51:25;;;;;;;36.08;19.83;;;2.00;99.90;;;;;;494966;239;27504;-74
2021/01/02 03:53:26;;;;;;;37.97;18.15;;;2.00;99.90;;;;;;495011;240;27501;-74
2021/01/02 03:55:28;;;;;;;40.30;18.25;;;2.00;99.90;;;;;;494976;239;27504;-73
2021/01/02 03:57:29;;;;;;;40.50;18.42;;;2.00;99.90;;;;;;495026;239;27488;-73
2021/01/02 03:59:30;;;;;;;38.42;18.58;;;2.00;99.90;;;;;;494982;239;27487;-72
2021/01/02 04:01:31;;;;;;;39.30;20.27;;;2.00;99.90;;;;;;494961;240;28841;-73
2021/01/02 04:03:33;;;;;;;36.28;18.02;;;2.00;99.90;;;;;;495037;239;27952;-73
2021/01/02 04:05:34;;;;;;;44.22;19.20;;;2.00;99.90;;;;;;495022;239;27567;-73
2021/01/02 04:07:35;;;;;;;41.03;19.55;;;1.90;99.90;;;;;;495025;239;27497;-73
2021/01/02 04:09:37;;;;;;;39.25;19.52;;;1.80;99.90;;;;;;495026;239;27575;-73
2021/01/02 04:11:38;;;;;;;46.25;20.42;;;1.70;99.90;;;;;;495007;239;27434;-72
2021/01/02 04:13:39;;;;;;;42.20;19.95;;;1.80;99.90;;;;;;494996;239;27503;-73
2021/01/02 04:15:40;;;;;;;46.22;20.77;;;1.80;99.90;;;;;;494998;239;27493;-74
2021/01/02 04:17:41;;;;;;;40.38;19.85;;;1.90;99.90;;;;;;494990;239;27925;-73
2021/01/02 04:19:43;;;;;;;44.42;19.92;;;1.80;99.90;;;;;;495020;239;27988;-74
2021/01/02 04:21:44;;;;;;;41.63;19.85;;;1.80;99.90;;;;;;495005;240;27449;-72
2021/01/02 04:23:45;;;;;;;42.05;18.37;;;1.80;99.90;;;;;;494300;239;27472;-74
2021/01/02 04:25:46;;;;;;;44.78;19.77;;;1.90;99.90;;;;;;495007;240;27564;-72
2021/01/02 04:27:48;;;;;;;42.92;21.20;;;1.90;99.90;;;;;;495078;239;27540;-72
2021/01/02 04:29:49;;;;;;;46.20;20.75;;;1.90;99.90;;;;;;495106;239;27596;-73
2021/01/02 04:31:53;;;;;;;42.47;20.40;;;1.90;99.90;;;;;;495076;240;27533;-72
2021/01/02 04:33:51;;;;;;;45.35;20.60;;;1.80;99.90;;;;;;495026;239;27947;-73
2021/01/02 04:35:53;;;;;;;42.30;21.20;;;1.80;99.90;;;;;;495181;240;27899;-73
2021/01/02 04:37:54;;;;;;;49.58;23.52;;;1.70;99.90;;;;;;495157;239;27515;-72
2021/01/02 04:39:55;;;;;;;50.72;23.35;;;1.60;99.90;;;;;;495212;239;27606;-75
2021/01/02 04:41:57;;;;;;;45.12;21.70;;;1.60;99.90;;;;;;495144;239;27552;-72
2021/01/02 04:43:58;;;;;;;50.30;22.58;;;1.60;99.90;;;;;;495178;240;27491;-73
2021/01/02 04:45:59;;;;;;;52.00;23.20;;;1.70;99.90;;;;;;495190;239;27909;-76
2021/01/02 04:48:00;;;;;;;52.72;26.40;;;1.80;99.90;;;;;;495163;239;27921;-73
2021/01/02 04:50:02;;;;;;;47.47;22.05;;;1.60;99.90;;;;;;495086;239;28002;-75
2021/01/02 04:52:03;;;;;;;45.12;21.77;;;1.70;99.90;;;;;;495131;239;27450;-73
2021/01/02 04:54:04;;;;;;;49.13;22.52;;;1.80;99.90;;;;;;495068;239;27497;-73
2021/01/02 04:56:05;;;;;;;40.28;21.12;;;1.80;99.90;;;;;;495062;239;27556;-75
2021/01/02 04:58:07;;;;;;;40.90;20.50;;;1.90;99.90;;;;;;495002;239;27550;-73
2021/01/02 05:00:08;;;;;;;38.80;19.62;;;1.90;99.90;;;;;;494933;239;27488;-74
2021/01/02 05:02:09;;;;;;;40.30;20.75;;;1.90;99.90;;;;;;495028;239;27441;-73
2021/01/02 05:04:10;;;;;;;46.50;22.10;;;1.90;99.90;;;;;;494981;239;27935;-72
2021/01/02 05:06:12;;;;;;;44.25;20.88;;;1.90;99.90;;;;;;494984;239;28043;-73
2021/01/02 05:08:13;;;;;;;50.45;23.87;;;1.90;99.90;;;;;;495022;239;27468;-76
2021/01/02 05:10:14;;;;;;;49.08;22.13;;;1.80;99.90;;;;;;494982;239;27581;-73
2021/01/02 05:12:15;;;;;;;50.85;23.62;;;1.70;99.90;;;;;;495011;240;27495;-75
2021/01/02 05:14:17;;;;;;;39.88;20.75;;;1.60;99.90;;;;;;495017;239;27517;-72
2021/01/02 05:16:18;;;;;;;47.90;22.73;;;1.60;99.90;;;;;;494948;239;27489;-73
2021/01/02 05:18:19;;;;;;;56.70;26.17;;;1.70;99.90;;;;;;494952;240;27474;-73
2021/01/02 05:20:20;;;;;;;54.03;24.60;;;1.50;99.90;;;;;;494949;239;28017;-73
2021/01/02 05:22:22;;;;;;;57.88;24.00;;;1.60;99.90;;;;;;494938;239;28075;-74
2021/01/02 05:24:23;;;;;;;52.33;24.10;;;1.40;99.90;;;;;;494975;240;27583;-73
2021/01/02 05:26:24;;;;;;;50.92;23.77;;;1.30;99.90;;;;;;494982;239;27580;-72
2021/01/02 05:28:25;;;;;;;51.15;24.25;;;1.40;99.90;;;;;;495009;239;27822;-73
2021/01/02 05:30:27;;;;;;;47.25;23.15;;;1.30;99.90;;;;;;494971;239;27628;-73
2021/01/02 05:32:28;;;;;;;47.35;22.17;;;1.50;99.90;;;;;;494950;240;27496;-73
2021/01/02 05:34:29;;;;;;;41.05;21.12;;;1.60;99.90;;;;;;494975;239;27940;-73
2021/01/02 05:36:30;;;;;;;47.62;21.15;;;1.70;99.90;;;;;;494970;239;27952;-73
2021/01/02 05:38:32;;;;;;;43.42;21.33;;;1.80;99.90;;;;;;495020;239;27528;-74
2021/01/02 05:40:33;;;;;;;45.10;21.00;;;1.70;99.90;;;;;;494954;240;27481;-72
2021/01/02 05:42:34;;;;;;;42.38;21.58;;;1.70;99.90;;;;;;494966;239;27500;-73
2021/01/02 05:44:35;;;;;;;39.88;20.17;;;1.70;99.90;;;;;;494963;239;27486;-73
2021/01/02 05:46:37;;;;;;;44.05;21.37;;;1.60;99.90;;;;;;494979;239;27501;-72
2021/01/02 05:48:38;;;;;;;44.20;21.80;;;1.60;99.90;;;;;;494965;239;27570;-74
2021/01/02 05:50:39;;;;;;;45.33;22.55;;;1.70;99.90;;;;;;494953;239;28096;-72
2021/01/02 05:52:40;;;;;;;51.53;23.92;;;1.70;99.90;;;;;;495024;239;27993;-73
2021/01/02 05:54:42;;;;;;;54.55;26.23;;;1.70;99.90;;;;;;495029;240;27478;-73
2021/01/02 05:56:43;;;;;;;47.92;23.23;;;1.60;99.90;;;;;;495082;239;27566;-73
2021/01/02 05:58:44;;;;;;;47.03;22.70;;;1.60;99.90;;;;;;495089;239;27524;-73
2021/01/02 06:00:46;;;;;;;58.83;24.35;;;1.50;99.90;;;;;;495082;239;27441;-73
2021/01/02 06:02:47;;;;;;;54.25;23.30;;;1.60;99.90;;;;;;495143;239;27535;-73
2021/01/02 06:04:48;;;;;;;49.97;23.48;;;1.50;99.90;;;;;;495196;239;27506;-74
2021/01/02 06:06:49;;;;;;;61.70;28.45;;;1.60;99.90;;;;;;495210;239;27907;-73
2021/01/02 06:08:51;;;;;;;49.75;23.38;;;1.60;99.90;;;;;;495199;240;27975;-73
2021/01/02 06:10:52;;;;;;;49.95;22.52;;;1.50;99.90;;;;;;495122;240;27442;-72
2021/01/02 06:12:53;;;;;;;45.72;21.33;;;1.60;99.90;;;;;;495157;239;27490;-73
2021/01/02 06:14:54;;;;;;;50.92;24.12;;;1.60;99.90;;;;;;495111;240;27828;-74
2021/01/02 06:16:56;;;;;;;54.67;24.52;;;1.60;99.90;;;;;;495152;239;27448;-72
2021/01/02 06:18:57;;;;;;;56.45;24.90;;;1.60;99.90;;;;;;495093;239;27524;-73
2021/01/02 06:20:58;;;;;;;54.58;23.42;;;1.50;99.90;;;;;;495032;239;28567;-72
2021/01/02 06:22:59;;;;;;;56.08;25.45;;;1.50;99.90;;;;;;495042;239;28039;-72
2021/01/02 06:25:01;;;;;;;51.85;23.08;;;1.50;99.90;;;;;;494995;239;28048;-74
2021/01/02 06:27:02;;;;;;;46.63;23.87;;;1.60;99.90;;;;;;495019;239;27452;-72
2021/01/02 06:29:03;;;;;;;51.83;23.80;;;1.60;99.90;;;;;;495010;240;27497;-72
2021/01/02 06:31:04;;;;;;;44.05;21.85;;;1.40;99.90;;;;;;494894;239;27841;-73
2021/01/02 06:33:06;;;;;;;51.88;24.12;;;1.50;99.90;;;;;;494998;240;27596;-73
2021/01/02 06:35:07;;;;;;;50.55;23.98;;;1.60;99.90;;;;;;495006;240;27534;-74
2021/01/02 06:37:08;;;;;;;57.62;24.27;;;1.50;99.90;;;;;;494989;239;27894;-72
2021/01/02 06:39:09;;;;;;;58.40;23.70;;;1.40;99.90;;;;;;494945;239;29150;-74
2021/01/02 06:41:11;;;;;;;49.88;23.10;;;1.40;99.90;;;;;;494906;239;27586;-74
2021/01/02 06:43:12;;;;;;;62.50;27.17;;;1.40;99.90;;;;;;494993;239;27496;-72
2021/01/02 06:45:13;;;;;;;53.45;25.48;;;1.40;99.90;;;;;;494982;239;27590;-74
2021/01/02 06:47:14;;;;;;;59.35;26.02;;;1.40;99.90;;;;;;494981;239;27606;-73
2021/01/02 06:49:16;;;;;;;69.40;25.42;;;1.30;99.90;;;;;;494956;240;27500;-73
2021/01/02 06:51:17;;;;;;;53.85;25.30;;;1.30;99.90;;;;;;494864;239;27512;-73
2021/01/02 06:53:18;;;;;;;61.08;25.65;;;1.40;99.90;;;;;;494922;239;28033;-72
2021/01/02 06:55:19;;;;;;;55.88;25.37;;;1.40;99.90;;;;;;492289;239;27977;-73
2021/01/02 06:57:21;;;;;;;61.78;26.70;;;1.30;99.90;;;;;;493029;240;27397;-73
2021/01/02 06:59:22;;;;;;;56.88;25.85;;;1.40;99.90;;;;;;492993;240;27405;-74
2021/01/02 07:01:23;;;;;;;61.17;26.30;;;1.40;99.90;;;;;;492927;240;27402;-72
2021/01/02 07:03:24;;;;;;;55.88;25.12;;;1.40;99.90;;;;;;492942;240;27436;-72
2021/01/02 07:05:26;;;;;;;64.35;25.77;;;1.40;99.90;;;;;;492999;240;28040;-73
2021/01/02 07:07:27;;;;;;;51.80;25.50;;;1.40;99.90;;;;;;492972;240;28676;-73
2021/01/02 07:09:28;;;;;;;62.05;27.05;;;1.40;99.90;;;;;;492978;240;27484;-73
2021/01/02 07:11:30;;;;;;;51.60;22.92;;;1.40;99.90;;;;;;492930;240;27477;-72
2021/01/02 07:13:31;;;;;;;69.07;26.08;;;1.30;99.90;;;;;;492989;240;27397;-72
2021/01/02 07:15:32;;;;;;;63.72;26.60;;;1.30;99.90;;;;;;493062;240;27363;-72
2021/01/02 07:17:33;;;;;;;54.47;23.08;;;1.30;99.90;;;;;;493001;240;27388;-73
2021/01/02 07:19:35;;;;;;;65.18;26.85;;;1.30;99.90;;;;;;492947;240;27429;-74
2021/01/02 07:21:36;;;;;;;70.37;27.65;;;1.30;99.90;;;;;;492960;240;27884;-72
2021/01/02 07:23:37;;;;;;;74.47;26.98;;;1.30;99.90;;;;;;493032;240;27880;-73
2021/01/02 07:25:38;;;;;;;58.45;26.52;;;1.30;99.90;;;;;;492969;240;27472;-72
2021/01/02 07:27:40;;;;;;;54.50;24.77;;;1.30;99.90;;;;;;492987;240;27406;-74
2021/01/02 07:29:41;;;;;;;72.82;27.08;;;1.30;99.90;;;;;;492992;240;27417;-74
2021/01/02 07:31:42;;;;;;;58.97;25.15;;;1.30;99.90;;;;;;492889;240;27389;-72
2021/01/02 07:33:43;;;;;;;51.78;24.20;;;1.30;99.90;;;;;;493007;240;27491;-73
2021/01/02 07:35:45;;;;;;;62.10;24.35;;;1.20;99.90;;;;;;493012;240;27841;-72
2021/01/02 07:37:46;;;;;;;70.50;26.87;;;1.30;99.90;;;;;;492998;240;27875;-73
2021/01/02 07:39:47;;;;;;;60.55;27.05;;;1.30;99.90;;;;;;492910;240;28223;-72
2021/01/02 07:41:48;;;;;;;77.75;27.77;;;1.30;99.90;;;;;;492942;240;27361;-73
2021/01/02 07:43:50;;;;;;;56.53;24.00;;;1.40;99.90;;;;;;492997;240;27491;-73
2021/01/02 07:45:51;;;;;;;61.75;26.42;;;1.40;99.90;;;;;;492953;240;27349;-73
2021/01/02 07:47:52;;;;;;;57.88;26.42;;;1.50;99.90;;;;;;492968;240;27409;-73
2021/01/02 07:49:53;;;;;;;59.80;25.60;;;1.50;99.90;;;;;;493045;240;27477;-74
2021/01/02 07:51:55;;;;;;;59.35;23.50;;;1.40;99.90;;;;;;493090;240;27806;-73
2021/01/02 07:53:56;;;;;;;62.47;26.10;;;1.40;99.90;;;;;;493166;240;27951;-73
2021/01/02 07:55:57;;;;;;;59.90;25.80;;;1.30;99.90;;;;;;493178;240;27393;-72
2021/01/02 07:57:58;;;;;;;53.65;24.58;;;1.30;99.90;;;;;;493158;240;27401;-72
2021/01/02 08:00:00;;;;;;;66.22;26.98;;;1.40;99.90;;;;;;493098;240;27418;-74
2021/01/02 08:02:01;;;;;;;65.93;27.48;;;1.40;99.90;;;;;;493103;240;27358;-73
2021/01/02 08:04:02;;;;;;;56.47;25.27;;;1.40;99.90;;;;;;493124;240;27393;-73
2021/01/02 08:06:03;;;;;;;57.28;23.20;;;1.40;99.90;;;;;;493016;240;27429;-73
2021/01/02 08:08:06;;;;;;;59.08;26.20;;;1.40;99.90;;;;;;492964;240;27873;-73
2021/01/02 08:10:06;;;;;;;58.05;25.75;;;1.40;99.90;;;;;;492913;240;27941;-74
2021/01/02 08:12:07;;;;;;;55.20;24.37;;;1.40;99.90;;;;;;492976;240;27389;-73
2021/01/02 08:14:08;;;;;;;54.80;23.95;;;1.40;99.90;;;;;;492762;240;27421;-74
2021/01/02 08:16:10;;;;;;;52.85;24.58;;;1.50;99.90;;;;;;492963;240;27816;-73
2021/01/02 08:18:11;;;;;;;51.42;23.73;;;1.50;99.90;;;;;;493045;240;27397;-73
2021/01/02 08:20:12;;;;;;;66.47;25.83;;;1.50;99.90;;;;;;493007;240;27406;-73
2021/01/02 08:22:14;;;;;;;47.70;22.40;;;1.40;99.90;;;;;;493058;240;27850;-74
2021/01/02 08:24:15;;;;;;;51.25;22.80;;;1.50;99.90;;;;;;493065;240;27888;-74
2021/01/02 08:26:18;;;;;;;65.28;26.40;;;1.50;99.90;;;;;;493051;240;27486;-74
2021/01/02 08:28:17;;;;;;;49.60;22.20;;;1.50;99.90;;;;;;493365;240;27358;-73
2021/01/02 08:30:19;;;;;;;54.17;22.90;;;1.50;99.90;;;;;;493375;240;27820;-73
2021/01/02 08:32:20;;;;;;;60.30;22.33;;;1.50;99.90;;;;;;493432;240;29004;-74
2021/01/02 08:34:21;;;;;;;47.50;22.10;;;1.50;99.90;;;;;;493435;240;27449;-74
2021/01/02 08:36:22;;;;;;;47.28;21.65;;;1.60;99.90;;;;;;493407;240;27346;-73
2021/01/02 08:38:24;;;;;;;52.90;23.83;;;1.50;99.90;;;;;;493426;240;27354;-74
2021/01/02 08:40:25;;;;;;;53.60;22.08;;;1.50;99.90;;;;;;493379;240;27375;-73
2021/01/02 08:42:26;;;;;;;51.28;23.52;;;1.50;99.90;;;;;;493424;240;27430;-75
2021/01/02 08:44:27;;;;;;;55.25;25.17;;;1.50;99.90;;;;;;493432;240;27475;-75
2021/01/02 08:46:29;;;;;;;48.83;21.90;;;1.50;99.90;;;;;;493411;240;27904;-74
2021/01/02 08:48:30;;;;;;;54.22;23.20;;;1.60;99.90;;;;;;493387;240;27790;-73
2021/01/02 08:50:31;;;;;;;50.65;22.55;;;1.60;99.90;;;;;;492978;240;27391;-73
2021/01/02 08:52:32;;;;;;;44.67;20.98;;;1.60;99.90;;;;;;493015;240;27472;-75
2021/01/02 08:54:34;;;;;;;49.13;21.55;;;1.40;99.90;;;;;;492975;240;27379;-74
2021/01/02 08:56:35;;;;;;;52.85;23.50;;;1.50;99.90;;;;;;492973;240;27476;-73
2021/01/02 08:58:36;;;;;;;48.45;22.27;;;1.50;99.90;;;;;;492969;240;27389;-73
2021/01/02 09:00:37;;;;;;;45.65;21.67;;;1.50;99.90;;;;;;492906;241;27413;-73
2021/01/02 09:02:39;;;;;;;46.08;23.38;;;1.50;99.90;;;;;;492720;240;27896;-73
2021/01/02 09:04:40;;;;;;;46.30;18.70;;;1.60;99.90;;;;;;492791;240;27839;-71
2021/01/02 09:06:41;;;;;;;43.53;22.05;;;1.70;99.90;;;;;;493129;240;27444;-73
2021/01/02 09:08:42;;;;;;;43.53;20.42;;;1.80;99.90;;;;;;493222;240;27417;-74
2021/01/02 09:10:44;;;;;;;48.65;21.67;;;1.70;99.90;;;;;;493166;240;27500;-73
2021/01/02 09:12:45;;;;;;;45.12;20.85;;;1.50;99.90;;;;;;493240;240;27398;-73
2021/01/02 09:14:46;;;;;;;47.53;22.33;;;1.50;99.90;;;;;;493190;240;27426;-73
2021/01/02 09:16:47;;;;;;;48.85;21.62;;;1.50;99.90;;;;;;493086;240;27849;-73
2021/01/02 09:18:49;;;;;;;44.78;21.65;;;1.60;99.90;;;;;;493119;240;27900;-74
2021/01/02 09:20:50;;;;;;;41.15;19.60;;;1.60;99.90;;;;;;493062;240;27365;-72
2021/01/02 09:22:51;;;;;;;38.70;19.77;;;1.70;99.90;;;;;;493048;240;27385;-72
2021/01/02 09:24:53;;;;;;;43.70;19.90;;;1.80;99.90;;;;;;493075;240;27363;-71
2021/01/02 09:26:54;;;;;;;38.45;20.02;;;1.70;99.90;;;;;;493044;240;27401;-72
2021/01/02 09:28:55;;;;;;;44.45;20.23;;;1.60;99.90;;;;;;493104;240;28083;-73
2021/01/02 09:30:56;;;;;;;37.83;19.80;;;1.70;99.90;;;;;;493031;240;27448;-72
2021/01/02 09:32:58;;;;;;;40.63;19.80;;;1.60;99.90;;;;;;493057;240;27967;-73
2021/01/02 09:34:59;;;;;;;47.38;20.77;;;1.70;99.90;;;;;;493039;240;27913;-73
2021/01/02 09:37:00;;;;;;;38.10;19.95;;;1.60;99.90;;;;;;493028;240;27397;-73
2021/01/02 09:39:01;;;;;;;44.72;20.80;;;1.80;99.90;;;;;;493057;240;27472;-74
2021/01/02 09:41:03;;;;;;;36.97;18.52;;;1.90;99.90;;;;;;493044;240;27468;-74
2021/01/02 09:43:04;;;;;;;38.90;19.73;;;2.00;99.90;;;;;;493086;240;27488;-72
2021/01/02 09:45:05;;;;;;;34.75;17.17;;;1.80;99.90;;;;;;493063;240;27480;-73
2021/01/02 09:47:06;;;;;;;37.00;19.02;;;1.70;99.90;;;;;;493058;240;27396;-73
2021/01/02 09:49:08;;;;;;;36.03;19.17;;;1.80;99.90;;;;;;493055;240;28665;-74
2021/01/02 09:51:09;;;;;;;39.97;20.75;;;1.70;99.90;;;;;;493023;240;28042;-73
2021/01/02 09:53:10;;;;;;;36.08;19.75;;;1.90;99.90;;;;;;493069;240;27490;-73
2021/01/02 09:55:11;;;;;;;35.88;17.83;;;1.90;99.90;;;;;;493045;240;27453;-73
2021/01/02 09:57:13;;;;;;;42.05;19.60;;;1.80;99.90;;;;;;493059;240;27762;-73
2021/01/02 09:59:14;;;;;;;37.13;18.35;;;1.80;99.90;;;;;;492184;237;27394;-72
2021/01/02 10:01:15;;;;;;;41.50;18.90;;;2.00;99.90;;;;;;487596;239;27531;-74
2021/01/02 10:03:16;;;;;;;34.50;17.92;;;2.00;99.90;;;;;;495606;239;27965;-73
2021/01/02 10:05:18;;;;;;;34.33;17.83;;;2.00;99.90;;;;;;496936;239;28015;-73
2021/01/02 10:07:19;;;;;;;31.52;17.10;;;2.20;99.90;;;;;;496840;239;28129;-74
2021/01/02 10:09:20;;;;;;;33.08;16.90;;;2.00;99.90;;;;;;496927;239;27475;-73
2021/01/02 10:11:21;;;;;;;34.15;18.73;;;2.10;99.90;;;;;;496900;239;27488;-74
2021/01/02 10:13:23;;;;;;;36.72;18.37;;;2.10;99.90;;;;;;496935;239;27589;-73
2021/01/02 10:15:24;;;;;;;31.95;17.15;;;2.00;99.90;;;;;;497007;239;27485;-74
2021/01/02 10:17:27;;;;;;;37.50;18.55;;;2.00;99.90;;;;;;496976;239;27519;-75
2021/01/02 10:19:26;;;;;;;39.28;18.95;;;2.10;99.90;;;;;;496920;239;27868;-74
2021/01/02 10:21:28;;;;;;;35.67;20.15;;;2.30;99.90;;;;;;497038;239;28007;-73